East Brunswick, NJ - U.S.A.

40° 26' 15"N, 74° 23' 24"W, Elevation 138 ft.

Wednesday, October 22, 2014
12:42:00 AM (Eastern)

295th day of the year

Updated and refreshed every 2 minutes. Weather computer in use: Davis Vantage PRO2 Plus


Current Weather:

Current Today's Highs and Lows
Temperature 53.3°F (11.8°C) ↑ 53.5° 12:18 AM
53.1° 12:00 AM
Dew Point 50.6°F (10.3°C) ↑ 50.8° 12:30 AM
49.8° 12:00 AM
Humidity 91% ↑ 91% 12:30 AM
89% 12:00 AM
Wind Gust NNE 6 mph N 6 12:08 AM
NNE 0 12:00 AM
Wind Speed NNE 1 mph ↑
Light air (1)
NNE 3 12:12 AM
NNE 0 12:00 AM
Precipitation 0.00" (0.00 mm) 1
Last 24 hours 0.00"
Instantaneous rate 0.00"/hr
Storm total 0.00"
0.00"2 12:00 AM
0.00"2 12:00 AM
Barometer 29.865" (1011.4 mb)
Falling
29.868" 12:00 AM
29.864" 12:14 AM
Wind Chill Gust 53°F (12°C) 54° 12:18 AM
51° 12:08 AM
Wind Chill Avg 53°F (12°C) 54° 12:18 AM
53° 12:00 AM
Heat Index 53°F (11.7°C) 53° 12:00 AM
53° 12:00 AM
Sunshine 0 W/m2
Sunshine minutes 0
0 12:00 AM
0 12:00 AM
UV Index  0.0 0.0 12:00 AM
0.0 12:00 AM
1. Daily total rainfall.
2. Maximum and minimum rainfall are the instantaneous rainfall rates.

'KEBR' METAR REPORT:

METAR KEBR 220442Z AUTO 03001KT 12/10 A2986 RMK AO1 SLP114 T01180103 

Yesterday's Weather and More...

Webcam
EBWeather Image

Video - Last 3 Hours

Video - Yesterday

Video - Last 3 Days

Weather Data from East Brunswick, NJ

Data generated by WxSolution Version 1.8.7, Build 2013.11.03.